Time;durP1;ratioP1;P1;durP2;ratioP2;P2;SDS_P1;SDS_P2;PMS_P1;PMS_P2;Temp;Humidity;BMP_temperature;BMP_pressure;BME280_temperature;BME280_humidity;BME280_pressure;Samples;Min_cycle;Max_cycle;Signal;HPM_P1;HPM_P2
2023/09/14 00:00:42;;;;;;;14.93;2.22;;;14.70;99.90;;;;;;5074270;28;20442;-68
2023/09/14 00:03:08;;;;;;;13.02;2.35;;;14.70;99.90;;;;;;5074694;28;20201;-69
2023/09/14 00:05:42;;;;;;;10.57;2.30;;;14.70;99.90;;;;;;5074302;28;20028;-68
2023/09/14 00:08:08;;;;;;;10.68;3.00;;;14.60;99.90;;;;;;5074099;28;20041;-67
2023/09/14 00:10:34;;;;;;;13.52;2.20;;;14.70;99.90;;;;;;5074144;28;20035;-68
2023/09/14 00:13:00;;;;;;;5.18;1.98;;;14.70;99.90;;;;;;5073053;28;20350;-68
2023/09/14 00:15:26;;;;;;;8.65;1.80;;;14.70;99.90;;;;;;5074058;28;20129;-68
2023/09/14 00:17:52;;;;;;;10.73;2.15;;;14.60;99.90;;;;;;5074025;28;20028;-68
2023/09/14 00:20:22;;;;;;;8.45;1.80;;;14.60;99.90;;;;;;5074064;28;20477;-68
2023/09/14 00:22:50;;;;;;;10.23;2.35;;;14.60;99.90;;;;;;5089986;28;20041;-69
2023/09/14 00:25:17;;;;;;;11.52;2.22;;;14.60;99.90;;;;;;5094330;28;20123;-69
2023/09/14 00:27:43;;;;;;;10.25;2.08;;;14.60;99.90;;;;;;5094042;28;20085;-68
2023/09/14 00:30:09;;;;;;;10.65;2.35;;;14.50;99.90;;;;;;5093932;28;20024;-69
2023/09/14 00:32:39;;;;;;;11.82;1.95;;;14.50;99.90;;;;;;5092893;28;20024;-68
2023/09/14 00:35:07;;;;;;;11.40;1.52;;;14.30;99.90;;;;;;5094296;28;20024;-68
2023/09/14 00:37:32;;;;;;;10.23;2.00;;;14.40;99.90;;;;;;5093689;28;20020;-68
2023/09/14 00:39:58;;;;;;;8.32;1.52;;;14.40;99.90;;;;;;5093932;28;20085;-68
2023/09/14 00:42:24;;;;;;;6.18;1.63;;;14.40;99.90;;;;;;5093718;28;20039;-69
2023/09/14 00:44:49;;;;;;;4.90;1.60;;;14.40;99.90;;;;;;5093416;28;20028;-68
2023/09/14 00:47:15;;;;;;;9.60;2.08;;;14.30;99.90;;;;;;5093728;28;20032;-68
2023/09/14 00:49:41;;;;;;;12.18;2.60;;;14.30;99.90;;;;;;5093737;28;20032;-68
2023/09/14 00:52:07;;;;;;;12.25;2.13;;;14.20;99.90;;;;;;5093618;28;20031;-68
2023/09/14 00:54:33;;;;;;;7.28;2.00;;;14.30;99.90;;;;;;5093505;28;20563;-68
2023/09/14 00:56:59;;;;;;;10.00;1.77;;;14.20;99.90;;;;;;5093438;28;20454;-68
2023/09/14 00:59:26;;;;;;;8.35;1.60;;;14.20;99.90;;;;;;5093504;28;20525;-68
2023/09/14 01:01:51;;;;;;;9.77;1.67;;;14.20;99.90;;;;;;5093451;28;20077;-68
2023/09/14 01:04:17;;;;;;;8.02;1.65;;;14.10;99.90;;;;;;5093474;28;20024;-68
2023/09/14 01:06:43;;;;;;;8.32;2.03;;;14.00;99.90;;;;;;5093070;28;20189;-68
2023/09/14 01:09:09;;;;;;;9.07;2.30;;;14.10;99.90;;;;;;5093521;28;20525;-68
2023/09/14 01:11:35;;;;;;;7.57;2.10;;;14.10;99.90;;;;;;5093643;28;20024;-68
2023/09/14 01:14:10;;;;;;;15.77;2.50;;;14.20;99.90;;;;;;5092203;28;20450;-68
2023/09/14 01:16:55;;;;;;;9.75;2.20;;;14.00;99.90;;;;;;5093181;28;20020;-68
2023/09/14 01:19:43;;;;;;;12.00;1.98;;;14.10;99.90;;;;;;5093344;28;20028;-68
2023/09/14 01:22:48;;;;;;;12.48;1.92;;;14.20;99.90;;;;;;5093164;28;20042;-68
2023/09/14 01:25:19;;;;;;;9.32;1.80;;;14.20;99.90;;;;;;5092535;28;20035;-68
2023/09/14 01:27:45;;;;;;;4.55;1.42;;;14.20;99.90;;;;;;5092997;28;20031;-69
2023/09/14 01:30:11;;;;;;;7.35;1.45;;;14.20;99.90;;;;;;5093117;28;20028;-68
2023/09/14 01:32:37;;;;;;;9.65;1.63;;;14.20;99.90;;;;;;5092964;28;20127;-69
2023/09/14 01:35:04;;;;;;;9.23;1.58;;;14.10;99.90;;;;;;5092615;28;20024;-68
2023/09/14 01:37:30;;;;;;;12.18;2.42;;;14.00;99.90;;;;;;5093199;28;20020;-68
2023/09/14 01:39:56;;;;;;;9.73;1.70;;;14.00;99.90;;;;;;5092193;28;20032;-68
2023/09/14 01:42:23;;;;;;;9.65;2.13;;;13.90;99.90;;;;;;5092792;28;20466;-68
2023/09/14 01:44:50;;;;;;;9.23;2.03;;;13.90;99.90;;;;;;5092951;28;20055;-68
2023/09/14 01:47:16;;;;;;;7.75;1.95;;;13.90;99.90;;;;;;5092752;28;20028;-68
2023/09/14 01:49:43;;;;;;;8.35;2.15;;;13.90;99.90;;;;;;5092773;28;20020;-68
2023/09/14 01:52:10;;;;;;;8.40;2.03;;;13.90;99.90;;;;;;5092514;28;20024;-68
2023/09/14 01:54:35;;;;;;;9.18;2.40;;;13.80;99.90;;;;;;5092491;28;20035;-68
2023/09/14 01:57:01;;;;;;;7.70;2.05;;;13.60;99.90;;;;;;5092504;28;20020;-68
2023/09/14 01:59:27;;;;;;;10.35;1.77;;;13.70;99.90;;;;;;5092343;28;20442;-68
2023/09/14 02:01:52;;;;;;;8.85;1.90;;;13.80;99.90;;;;;;5092753;28;20085;-68
2023/09/14 02:04:18;;;;;;;13.07;2.58;;;13.80;99.90;;;;;;5092627;28;20024;-69
2023/09/14 02:06:43;;;;;;;10.85;1.58;;;13.80;99.90;;;;;;5092462;28;20350;-68
2023/09/14 02:09:09;;;;;;;10.43;2.30;;;13.80;99.90;;;;;;5092512;28;20056;-68
2023/09/14 02:11:35;;;;;;;8.00;1.70;;;13.90;99.90;;;;;;5092286;28;20485;-68
2023/09/14 02:14:00;;;;;;;9.82;1.63;;;13.80;99.90;;;;;;5091235;28;20031;-68
2023/09/14 02:16:27;;;;;;;12.07;1.95;;;13.90;99.90;;;;;;5092077;28;20081;-68
2023/09/14 02:18:53;;;;;;;10.25;1.67;;;13.90;99.90;;;;;;5092598;28;20103;-68
2023/09/14 02:21:18;;;;;;;5.15;1.48;;;13.80;99.90;;;;;;5092066;28;20401;-68
2023/09/14 02:23:44;;;;;;;8.00;1.90;;;13.80;99.90;;;;;;5092023;28;20077;-68
2023/09/14 02:26:10;;;;;;;9.10;2.10;;;13.90;99.90;;;;;;5092057;28;20373;-69
2023/09/14 02:28:35;;;;;;;10.07;1.88;;;13.80;99.90;;;;;;5091969;28;20055;-68
2023/09/14 02:31:10;;;;;;;9.30;1.52;;;13.70;99.90;;;;;;5092292;28;20039;-68
2023/09/14 02:33:37;;;;;;;9.77;2.20;;;13.70;99.90;;;;;;5091831;28;20039;-68
2023/09/14 02:36:03;;;;;;;9.32;2.33;;;13.70;99.90;;;;;;5091722;28;20358;-68
2023/09/14 02:38:29;;;;;;;9.75;1.65;;;13.70;99.90;;;;;;5091880;28;20016;-68
2023/09/14 02:40:54;;;;;;;9.57;2.38;;;13.80;99.90;;;;;;5091709;28;20373;-68
2023/09/14 02:43:20;;;;;;;13.02;2.25;;;13.80;99.90;;;;;;5091768;28;20031;-68
2023/09/14 02:45:45;;;;;;;7.03;1.95;;;13.70;99.90;;;;;;5091756;28;20020;-68
2023/09/14 02:48:11;;;;;;;16.63;2.10;;;13.80;99.90;;;;;;5092084;28;20039;-68
2023/09/14 02:50:37;;;;;;;9.73;1.88;;;13.70;99.90;;;;;;5091422;28;20035;-68
2023/09/14 02:53:02;;;;;;;6.95;2.75;;;13.70;99.90;;;;;;5090875;28;20035;-68
2023/09/14 02:55:28;;;;;;;15.00;2.00;;;13.70;99.90;;;;;;5091837;28;20034;-68
2023/09/14 02:57:54;;;;;;;5.00;1.75;;;13.70;99.90;;;;;;5091501;28;20028;-68
2023/09/14 03:00:19;;;;;;;5.72;1.90;;;13.50;99.90;;;;;;5090789;28;20025;-68
2023/09/14 03:02:45;;;;;;;11.45;1.80;;;13.50;99.90;;;;;;5091545;28;20024;-68
2023/09/14 03:05:11;;;;;;;11.82;2.30;;;13.60;99.90;;;;;;5091705;28;20412;-68
2023/09/14 03:07:38;;;;;;;10.02;2.28;;;13.60;99.90;;;;;;5091298;28;20066;-68
2023/09/14 03:10:04;;;;;;;9.57;2.33;;;13.60;99.90;;;;;;5091320;28;20039;-69
2023/09/14 03:12:30;;;;;;;10.23;2.22;;;13.50;99.90;;;;;;5091558;28;20070;-68
2023/09/14 03:14:55;;;;;;;15.18;3.35;;;13.60;99.90;;;;;;5091660;28;20063;-68
2023/09/14 03:17:21;;;;;;;9.98;2.22;;;13.60;99.90;;;;;;5091355;28;20052;-68
2023/09/14 03:19:48;;;;;;;7.80;2.08;;;13.50;99.90;;;;;;5091371;28;20027;-67
2023/09/14 03:22:16;;;;;;;5.05;1.75;;;13.40;99.90;;;;;;5090230;28;20039;-68
2023/09/14 03:24:42;;;;;;;8.15;2.10;;;13.30;99.90;;;;;;5090124;28;20027;-68
2023/09/14 03:27:08;;;;;;;7.10;2.20;;;13.30;99.90;;;;;;5091270;28;20085;-68
2023/09/14 03:29:33;;;;;;;5.75;1.88;;;13.30;99.90;;;;;;5091232;28;20035;-68
2023/09/14 03:32:00;;;;;;;6.75;1.67;;;13.30;99.90;;;;;;5090213;28;20024;-69
2023/09/14 03:34:25;;;;;;;11.35;2.05;;;13.40;99.90;;;;;;5091484;28;20012;-68
2023/09/14 03:36:51;;;;;;;8.25;2.45;;;13.40;99.90;;;;;;5091505;28;20035;-69
2023/09/14 03:39:17;;;;;;;8.52;2.17;;;13.40;99.90;;;;;;5091281;28;20020;-70
2023/09/14 03:41:42;;;;;;;10.23;1.85;;;13.40;99.90;;;;;;5091178;28;20350;-68
2023/09/14 03:44:08;;;;;;;8.27;2.67;;;13.30;99.90;;;;;;5091106;28;20095;-68
2023/09/14 03:46:34;;;;;;;12.10;2.05;;;13.40;99.90;;;;;;5091488;28;20035;-67
2023/09/14 03:49:02;;;;;;;9.23;1.88;;;13.30;99.90;;;;;;5091011;28;20070;-67
2023/09/14 03:51:28;;;;;;;13.70;2.22;;;13.40;99.90;;;;;;5091111;28;20031;-67
2023/09/14 03:53:53;;;;;;;16.13;2.58;;;13.30;99.90;;;;;;5091017;28;20028;-67
2023/09/14 03:56:19;;;;;;;13.52;2.55;;;13.30;99.90;;;;;;5091026;28;20031;-67
2023/09/14 03:58:45;;;;;;;12.23;2.00;;;13.40;99.90;;;;;;5091001;28;20020;-68
2023/09/14 04:01:10;;;;;;;8.57;2.20;;;13.30;99.90;;;;;;5090908;28;20047;-67
2023/09/14 04:03:36;;;;;;;8.38;2.25;;;13.20;99.90;;;;;;5092843;28;20145;-67
2023/09/14 04:06:02;;;;;;;7.05;1.70;;;13.30;99.90;;;;;;5094637;28;20052;-68
2023/09/14 04:08:28;;;;;;;13.10;2.13;;;13.40;99.90;;;;;;5094332;28;20105;-68
2023/09/14 04:10:53;;;;;;;10.07;2.15;;;13.40;99.90;;;;;;5094311;28;20338;-68
2023/09/14 04:13:34;;;;;;;7.85;1.88;;;13.30;99.90;;;;;;5094451;28;20059;-68
2023/09/14 04:16:02;;;;;;;10.75;1.90;;;13.30;99.90;;;;;;5094741;28;20028;-68
2023/09/14 04:18:28;;;;;;;7.55;1.88;;;13.30;99.90;;;;;;5094302;28;20020;-68
2023/09/14 04:20:55;;;;;;;8.32;1.80;;;13.30;99.90;;;;;;5093215;28;20342;-67
2023/09/14 04:23:21;;;;;;;12.73;2.35;;;13.30;99.90;;;;;;5094253;28;20032;-68
2023/09/14 04:25:48;;;;;;;9.52;1.73;;;13.30;99.90;;;;;;5094112;28;20056;-67
2023/09/14 04:28:15;;;;;;;4.73;1.43;;;13.30;99.90;;;;;;5094287;28;20043;-68
2023/09/14 04:30:48;;;;;;;9.52;2.40;;;13.30;99.90;;;;;;5092951;28;20256;-68
2023/09/14 04:33:15;;;;;;;15.10;2.58;;;13.30;99.90;;;;;;5093087;28;20028;-68
2023/09/14 04:35:41;;;;;;;4.57;1.70;;;13.30;99.90;;;;;;5093924;28;20084;-68
2023/09/14 04:38:08;;;;;;;6.53;2.08;;;13.30;99.90;;;;;;5093906;28;20042;-67
2023/09/14 04:40:38;;;;;;;8.75;3.05;;;13.30;99.90;;;;;;5093842;28;20020;-67
2023/09/14 04:43:05;;;;;;;7.60;1.92;;;13.30;99.90;;;;;;5093892;28;20400;-68
2023/09/14 04:45:31;;;;;;;9.65;1.70;;;13.30;99.90;;;;;;5093790;28;20020;-67
2023/09/14 04:47:57;;;;;;;9.45;2.72;;;13.30;99.90;;;;;;5093813;28;20042;-69
2023/09/14 04:50:23;;;;;;;9.07;1.80;;;13.40;99.90;;;;;;5093654;28;20299;-68
2023/09/14 04:52:49;;;;;;;10.02;2.58;;;13.40;99.90;;;;;;5093760;28;20031;-68
2023/09/14 04:55:14;;;;;;;11.98;2.47;;;13.40;99.90;;;;;;5093498;28;20501;-68
2023/09/14 04:57:40;;;;;;;11.65;2.00;;;13.40;99.90;;;;;;5093314;28;20028;-67
2023/09/14 05:00:09;;;;;;;9.35;2.17;;;13.40;99.90;;;;;;5093506;28;20028;-68
2023/09/14 05:02:35;;;;;;;7.50;2.03;;;13.40;99.90;;;;;;5093409;28;20099;-68
2023/09/14 05:05:02;;;;;;;13.85;2.45;;;13.40;99.90;;;;;;5093332;28;20047;-67
2023/09/14 05:07:27;;;;;;;6.45;2.15;;;13.40;99.90;;;;;;5093249;28;20044;-68
2023/09/14 05:09:53;;;;;;;14.63;2.30;;;13.30;99.90;;;;;;5093274;28;20038;-67
2023/09/14 05:12:19;;;;;;;13.57;2.83;;;13.30;99.90;;;;;;5092240;28;20031;-67
2023/09/14 05:14:44;;;;;;;10.13;2.53;;;13.20;99.90;;;;;;5092029;28;20024;-67
2023/09/14 05:17:10;;;;;;;8.98;2.15;;;13.20;99.90;;;;;;5093120;28;20020;-68
2023/09/14 05:19:41;;;;;;;9.40;2.20;;;13.20;99.90;;;;;;5093100;28;20433;-68
2023/09/14 05:22:07;;;;;;;11.35;2.58;;;13.30;99.90;;;;;;5092979;28;20049;-68
2023/09/14 05:24:32;;;;;;;12.63;2.15;;;13.30;99.90;;;;;;5092963;28;20119;-68
2023/09/14 05:26:59;;;;;;;8.85;2.40;;;13.30;99.90;;;;;;5093370;28;20036;-69
2023/09/14 05:29:25;;;;;;;14.77;2.78;;;13.30;99.90;;;;;;5092946;28;20116;-69
2023/09/14 05:31:51;;;;;;;11.20;1.85;;;13.30;99.90;;;;;;5092895;28;20043;-68
2023/09/14 05:34:16;;;;;;;11.93;3.33;;;13.30;99.90;;;;;;5092737;28;20024;-68
2023/09/14 05:36:42;;;;;;;7.70;2.22;;;13.30;99.90;;;;;;5092561;28;20067;-69
2023/09/14 05:39:08;;;;;;;11.07;2.40;;;13.30;99.90;;;;;;5092503;28;20023;-70
2023/09/14 05:41:35;;;;;;;8.45;2.65;;;13.30;99.90;;;;;;5092461;28;20107;-69
2023/09/14 05:44:03;;;;;;;10.25;2.70;;;13.40;99.90;;;;;;5092536;28;20081;-69
2023/09/14 05:46:29;;;;;;;11.40;2.53;;;13.40;99.90;;;;;;5092596;28;20024;-71
2023/09/14 05:48:55;;;;;;;11.45;2.50;;;13.40;99.90;;;;;;5092566;28;20028;-69
2023/09/14 05:51:20;;;;;;;18.10;2.60;;;13.50;99.90;;;;;;5092636;28;20123;-68
2023/09/14 05:53:46;;;;;;;11.68;2.33;;;13.50;99.90;;;;;;5092087;28;20032;-68
2023/09/14 05:56:12;;;;;;;9.43;1.92;;;13.50;99.90;;;;;;5092593;28;20417;-69
2023/09/14 05:58:37;;;;;;;11.48;3.92;;;13.50;99.90;;;;;;5092155;28;20024;-71
2023/09/14 06:01:04;;;;;;;10.68;2.00;;;13.50;99.90;;;;;;5092566;28;20016;-70
2023/09/14 06:03:30;;;;;;;8.43;2.25;;;13.40;99.90;;;;;;5092173;28;20012;-69
2023/09/14 06:05:56;;;;;;;12.32;2.58;;;13.50;99.90;;;;;;5092696;28;20028;-71
2023/09/14 06:08:21;;;;;;;6.28;2.08;;;13.60;99.90;;;;;;5092039;28;20048;-69
2023/09/14 06:10:47;;;;;;;10.43;2.42;;;13.60;99.90;;;;;;5092236;28;20032;-71
2023/09/14 06:13:13;;;;;;;11.95;2.90;;;13.70;99.90;;;;;;5092165;28;20076;-69
2023/09/14 06:15:38;;;;;;;11.68;2.47;;;13.80;99.90;;;;;;5091949;28;20059;-70
2023/09/14 06:18:04;;;;;;;7.68;2.28;;;13.80;99.90;;;;;;5091724;28;20016;-71
2023/09/14 06:20:30;;;;;;;12.68;2.83;;;13.90;99.90;;;;;;5092014;28;20047;-70
2023/09/14 06:22:55;;;;;;;15.50;2.25;;;13.90;99.90;;;;;;5091827;28;20016;-71
2023/09/14 06:25:22;;;;;;;11.18;2.60;;;14.00;99.90;;;;;;5091732;28;20032;-71
2023/09/14 06:27:48;;;;;;;7.57;2.05;;;14.00;99.90;;;;;;5091877;28;20461;-71
2023/09/14 06:30:13;;;;;;;10.95;2.55;;;14.10;99.90;;;;;;5091800;28;20030;-71
2023/09/14 06:32:39;;;;;;;18.73;4.05;;;14.10;99.90;;;;;;5091706;28;20362;-71
2023/09/14 06:35:06;;;;;;;9.02;2.42;;;14.00;99.90;;;;;;5091519;28;20031;-70
2023/09/14 06:37:32;;;;;;;13.85;2.95;;;14.10;99.90;;;;;;5091697;28;20030;-71
2023/09/14 06:39:57;;;;;;;12.00;2.55;;;14.00;99.90;;;;;;5091734;28;20106;-71
2023/09/14 06:42:23;;;;;;;11.52;2.88;;;14.10;99.90;;;;;;5091578;28;20093;-71
2023/09/14 06:44:49;;;;;;;12.80;2.67;;;14.20;99.90;;;;;;5091746;28;20035;-71
2023/09/14 06:47:14;;;;;;;9.10;2.40;;;14.20;99.90;;;;;;5090419;28;20099;-72
2023/09/14 06:49:41;;;;;;;10.70;2.38;;;14.20;99.90;;;;;;5090493;28;20381;-72
2023/09/14 06:52:06;;;;;;;14.82;3.03;;;14.30;99.90;;;;;;5091522;28;20028;-71
2023/09/14 06:54:32;;;;;;;9.23;2.38;;;14.30;99.90;;;;;;5091267;28;20024;-72
2023/09/14 06:56:58;;;;;;;9.23;1.90;;;14.30;99.90;;;;;;5091491;28;20065;-72
2023/09/14 06:59:23;;;;;;;9.55;2.38;;;14.20;99.90;;;;;;5090512;28;20377;-72
2023/09/14 07:01:50;;;;;;;8.45;2.20;;;14.30;99.90;;;;;;5090431;28;20020;-72
2023/09/14 07:04:15;;;;;;;8.43;2.08;;;14.30;99.90;;;;;;5091259;28;20097;-72
2023/09/14 07:06:41;;;;;;;8.25;2.17;;;14.40;99.90;;;;;;5090911;28;20202;-72
2023/09/14 07:09:07;;;;;;;11.23;2.40;;;14.40;99.90;;;;;;5090372;28;20094;-72
2023/09/14 07:11:34;;;;;;;6.80;1.80;;;14.50;99.90;;;;;;5091303;28;20028;-72
2023/09/14 07:14:00;;;;;;;11.90;2.55;;;14.50;99.90;;;;;;5090436;28;20028;-72
2023/09/14 07:16:26;;;;;;;8.15;2.45;;;14.60;99.90;;;;;;5091644;28;20024;-73
2023/09/14 07:18:52;;;;;;;10.52;2.33;;;14.70;99.90;;;;;;5090121;28;20031;-72
2023/09/14 07:21:17;;;;;;;10.18;2.78;;;14.70;99.90;;;;;;5091285;28;20051;-71
2023/09/14 07:23:43;;;;;;;8.43;2.80;;;14.80;99.90;;;;;;5090715;28;20024;-72
2023/09/14 07:26:09;;;;;;;10.18;2.10;;;14.90;99.90;;;;;;5091035;28;20039;-71
2023/09/14 07:28:35;;;;;;;12.10;2.63;;;14.90;99.90;;;;;;5091363;28;20043;-71
2023/09/14 07:31:05;;;;;;;12.82;2.83;;;14.90;99.90;;;;;;5091137;28;20024;-71
2023/09/14 07:33:31;;;;;;;15.80;3.10;;;15.00;99.90;;;;;;5090255;28;20342;-71
2023/09/14 07:35:57;;;;;;;15.75;2.35;;;15.10;99.90;;;;;;5091042;28;20032;-71
2023/09/14 07:38:23;;;;;;;10.02;2.30;;;15.20;99.90;;;;;;5091609;28;20024;-69
2023/09/14 07:40:49;;;;;;;11.98;2.40;;;15.20;99.90;;;;;;5094881;28;20475;-70
2023/09/14 07:43:14;;;;;;;9.88;2.15;;;15.20;99.90;;;;;;5094879;28;20016;-69
2023/09/14 07:45:40;;;;;;;11.60;3.22;;;15.40;99.90;;;;;;5093860;28;20028;-71
2023/09/14 07:48:07;;;;;;;11.32;2.28;;;15.30;99.90;;;;;;5093688;28;20107;-71
2023/09/14 07:50:39;;;;;;;6.40;1.80;;;15.40;99.90;;;;;;5095049;28;20146;-72
2023/09/14 07:53:06;;;;;;;9.05;2.42;;;15.50;99.90;;;;;;5094524;28;20351;-69
2023/09/14 07:55:32;;;;;;;9.00;2.50;;;15.60;99.90;;;;;;5093486;28;20040;-71
2023/09/14 07:57:58;;;;;;;16.50;2.75;;;15.60;99.90;;;;;;5094644;28;20024;-69
2023/09/14 08:00:24;;;;;;;13.20;2.78;;;15.70;99.90;;;;;;5094399;28;20058;-70
2023/09/14 08:02:49;;;;;;;6.75;2.35;;;15.70;99.90;;;;;;5093545;28;20051;-69
2023/09/14 08:05:15;;;;;;;11.10;2.30;;;15.70;99.90;;;;;;5094428;28;20056;-71
2023/09/14 08:07:40;;;;;;;11.30;2.42;;;15.70;99.90;;;;;;5093152;28;20067;-72
2023/09/14 08:10:08;;;;;;;12.02;2.05;;;15.80;99.90;;;;;;5094505;28;20028;-69
2023/09/14 08:12:36;;;;;;;7.50;2.53;;;15.90;99.90;;;;;;5094375;28;20032;-72
2023/09/14 08:15:05;;;;;;;6.80;2.67;;;16.00;99.90;;;;;;5093250;28;20044;-70
2023/09/14 08:17:31;;;;;;;11.52;2.28;;;16.00;99.90;;;;;;5094562;28;20415;-71
2023/09/14 08:19:57;;;;;;;5.75;1.77;;;16.10;99.90;;;;;;5093235;28;20407;-69
2023/09/14 08:22:23;;;;;;;8.98;3.08;;;16.40;99.90;;;;;;5094183;28;20051;-69
2023/09/14 08:24:52;;;;;;;13.82;3.00;;;17.10;99.10;;;;;;5094057;28;20028;-70
2023/09/14 08:27:18;;;;;;;8.00;2.17;;;17.90;98.00;;;;;;5094009;28;20024;-70
2023/09/14 08:29:45;;;;;;;6.40;1.70;;;19.10;98.70;;;;;;5094262;28;20439;-69
2023/09/14 08:32:11;;;;;;;9.80;1.48;;;20.10;96.90;;;;;;5093956;28;20082;-70
2023/09/14 08:34:37;;;;;;;4.75;1.60;;;20.90;94.60;;;;;;5093928;28;20024;-69
2023/09/14 08:37:03;;;;;;;6.53;1.98;;;21.40;94.50;;;;;;5093729;28;20024;-69
2023/09/14 08:39:29;;;;;;;10.27;2.00;;;22.10;92.20;;;;;;5093759;28;20099;-69
2023/09/14 08:41:55;;;;;;;8.13;1.85;;;22.90;93.30;;;;;;5093971;28;20112;-70
2023/09/14 08:44:22;;;;;;;7.90;1.63;;;23.60;91.80;;;;;;5093604;28;20035;-70
2023/09/14 08:46:48;;;;;;;6.75;1.40;;;24.50;90.30;;;;;;5093688;28;20032;-70
2023/09/14 08:49:19;;;;;;;10.95;1.75;;;24.90;86.70;;;;;;5092816;28;20024;-69
2023/09/14 08:51:45;;;;;;;6.70;1.50;;;25.80;86.50;;;;;;5092427;28;20469;-70
2023/09/14 08:54:12;;;;;;;10.13;2.53;;;26.80;83.90;;;;;;5093891;28;20040;-72
2023/09/14 08:56:39;;;;;;;6.45;1.42;;;27.60;81.30;;;;;;5093641;28;20031;-72
2023/09/14 08:59:07;;;;;;;9.48;2.05;;;27.30;75.50;;;;;;5092539;28;20052;-71
2023/09/14 09:01:36;;;;;;;6.35;2.03;;;28.10;74.10;;;;;;5093163;28;20035;-71
2023/09/14 09:04:02;;;;;;;8.80;1.85;;;29.10;75.20;;;;;;5093331;28;20036;-70
2023/09/14 09:06:28;;;;;;;8.60;1.80;;;29.30;71.40;;;;;;5093201;28;20456;-71
2023/09/14 09:08:56;;;;;;;8.10;1.88;;;29.40;69.50;;;;;;5093096;28;20032;-70
2023/09/14 09:11:22;;;;;;;4.82;1.85;;;29.40;66.10;;;;;;5093242;28;20141;-70
2023/09/14 09:13:49;;;;;;;9.02;1.80;;;29.90;67.50;;;;;;5092821;28;20044;-71
2023/09/14 09:16:15;;;;;;;7.03;1.60;;;30.30;68.00;;;;;;5093058;28;20061;-69
2023/09/14 09:19:03;;;;;;;6.90;1.50;;;30.60;63.70;;;;;;5093132;28;20218;-71
2023/09/14 09:21:32;;;;;;;7.85;1.98;;;30.70;61.10;;;;;;5093059;28;20073;-71
2023/09/14 09:23:59;;;;;;;6.60;1.67;;;31.00;60.90;;;;;;5093169;28;20031;-69
2023/09/14 09:26:33;;;;;;;5.20;1.40;;;30.20;59.50;;;;;;5093066;28;20110;-70
2023/09/14 09:28:58;;;;;;;6.68;1.95;;;28.10;59.40;;;;;;5092985;28;20382;-70
2023/09/14 09:31:45;;;;;;;4.15;1.38;;;27.80;60.20;;;;;;5091706;28;20055;-72
2023/09/14 09:34:12;;;;;;;6.50;1.45;;;27.00;61.50;;;;;;5092629;28;20450;-70
2023/09/14 09:36:38;;;;;;;7.63;1.70;;;26.40;62.60;;;;;;5092809;28;20042;-70
2023/09/14 09:39:05;;;;;;;3.33;1.30;;;25.70;64.80;;;;;;5092604;28;20020;-70
2023/09/14 09:41:35;;;;;;;6.18;1.05;;;25.20;67.30;;;;;;5093090;28;20442;-71
2023/09/14 09:44:09;;;;;;;6.90;1.20;;;24.70;66.10;;;;;;5091498;28;20036;-73
2023/09/14 09:46:35;;;;;;;5.88;1.45;;;24.30;66.90;;;;;;5093115;28;20091;-72
2023/09/14 09:49:22;;;;;;;6.45;1.60;;;23.90;67.30;;;;;;5092553;28;20386;-69
2023/09/14 09:51:50;;;;;;;4.90;1.40;;;23.40;67.40;;;;;;5091573;28;20017;-69
2023/09/14 09:54:19;;;;;;;8.27;1.88;;;23.00;68.00;;;;;;5092635;28;20020;-69
2023/09/14 09:56:45;;;;;;;6.35;0.93;;;23.00;69.00;;;;;;5092418;28;20102;-70
2023/09/14 09:59:13;;;;;;;6.95;1.25;;;22.70;67.40;;;;;;5092048;28;20024;-70
2023/09/14 10:01:45;;;;;;;10.10;1.45;;;22.30;67.70;;;;;;5091730;28;20339;-69
2023/09/14 10:04:15;;;;;;;6.47;1.40;;;22.30;69.50;;;;;;5092190;28;20026;-70
2023/09/14 10:06:48;;;;;;;5.80;1.00;;;22.60;69.40;;;;;;5092196;28;20111;-69
2023/09/14 10:09:14;;;;;;;6.90;1.25;;;22.30;69.50;;;;;;5092342;28;20035;-70
2023/09/14 10:11:40;;;;;;;4.53;1.42;;;22.50;70.00;;;;;;5092238;28;20111;-70
2023/09/14 10:14:10;;;;;;;6.20;0.93;;;22.80;69.20;;;;;;5092775;28;20012;-71
2023/09/14 10:16:44;;;;;;;9.65;0.95;;;22.80;67.90;;;;;;5091967;28;20479;-70
2023/09/14 10:19:11;;;;;;;6.40;1.17;;;23.00;68.40;;;;;;5091924;28;20024;-70
2023/09/14 10:21:39;;;;;;;5.68;1.65;;;23.40;67.60;;;;;;5091998;28;20032;-69
2023/09/14 10:24:06;;;;;;;;;;;23.30;67.10;;;;;;5092370;28;20020;-69
2023/09/14 10:26:36;;;;;;;4.05;1.23;;;23.00;68.40;;;;;;5091921;28;20325;-67
2023/09/14 10:29:08;;;;;;;6.00;1.40;;;23.90;69.60;;;;;;5091900;28;20424;-68
2023/09/14 10:31:36;;;;;;;4.63;1.08;;;24.40;69.60;;;;;;5091860;28;20058;-70
2023/09/14 10:34:08;;;;;;;5.75;1.95;;;24.40;67.00;;;;;;5091845;28;20028;-66
2023/09/14 10:36:35;;;;;;;8.43;1.45;;;25.20;67.50;;;;;;5091664;28;20099;-70
2023/09/14 10:39:01;;;;;;;4.90;1.43;;;26.10;64.70;;;;;;5092186;28;20024;-70
2023/09/14 10:41:30;;;;;;;6.55;1.67;;;26.90;66.00;;;;;;5091726;28;20061;-70
2023/09/14 10:43:56;;;;;;;10.80;5.13;;;26.60;63.80;;;;;;5091568;28;20055;-71
2023/09/14 10:46:28;;;;;;;9.32;2.50;;;26.20;63.70;;;;;;5091311;28;20097;-71
2023/09/14 10:48:56;;;;;;;6.68;1.40;;;25.70;64.40;;;;;;5091459;28;20358;-70
2023/09/14 10:51:23;;;;;;;4.38;1.27;;;25.70;66.00;;;;;;5091520;28;20028;-70
2023/09/14 10:53:49;;;;;;;7.53;1.17;;;25.60;63.30;;;;;;5073718;28;20023;-72
2023/09/14 10:56:23;;;;;;;3.08;1.20;;;25.50;64.00;;;;;;5090549;28;20380;-70
2023/09/14 10:58:53;;;;;;;3.42;1.25;;;24.60;64.80;;;;;;5092313;28;20028;-70
2023/09/14 11:01:24;;;;;;;7.15;2.03;;;24.30;65.50;;;;;;5090296;28;20107;-69
2023/09/14 11:04:11;;;;;;;4.15;1.27;;;23.90;66.60;;;;;;5091427;28;20451;-70
2023/09/14 11:06:48;;;;;;;5.63;1.30;;;23.40;67.70;;;;;;5090217;28;20032;-69
2023/09/14 11:09:14;;;;;;;2.33;1.00;;;23.00;68.40;;;;;;5091762;28;20020;-70
2023/09/14 11:11:45;;;;;;;5.07;1.30;;;22.90;68.60;;;;;;5091321;28;20471;-69
2023/09/14 11:14:17;;;;;;;3.33;1.13;;;22.30;68.50;;;;;;5094580;28;20300;-70
2023/09/14 11:16:53;;;;;;;6.28;2.08;;;22.30;69.70;;;;;;5094301;28;20106;-69
2023/09/14 11:19:41;;;;;;;6.15;1.20;;;22.30;70.00;;;;;;5095290;28;20035;-71
2023/09/14 11:22:15;;;;;;;5.53;1.15;;;22.20;70.90;;;;;;5088870;28;20051;-70
2023/09/14 11:24:41;;;;;;;4.95;1.10;;;22.20;71.00;;;;;;5096518;28;20469;-70
2023/09/14 11:27:15;;;;;;;5.05;1.33;;;22.30;71.30;;;;;;5095246;28;20075;-70
2023/09/14 11:29:45;;;;;;;4.05;1.10;;;22.00;70.90;;;;;;5095332;28;20066;-70
2023/09/14 11:32:17;;;;;;;4.18;1.02;;;21.90;72.10;;;;;;5095396;28;20024;-70
2023/09/14 11:34:45;;;;;;;4.88;1.17;;;22.00;72.10;;;;;;5094906;28;20012;-70
2023/09/14 11:37:13;;;;;;;8.02;1.30;;;21.90;72.00;;;;;;5095191;28;20442;-70
2023/09/14 11:39:40;;;;;;;4.70;1.25;;;21.80;72.90;;;;;;5095007;28;20528;-70
2023/09/14 11:42:06;;;;;;;3.10;1.30;;;21.70;72.10;;;;;;5095069;28;20024;-69
2023/09/14 11:44:44;;;;;;;8.25;1.67;;;21.70;72.40;;;;;;5094850;28;20035;-69
2023/09/14 11:47:10;;;;;;;4.97;1.30;;;21.70;73.00;;;;;;5094882;28;20039;-70
2023/09/14 11:49:36;;;;;;;5.13;1.08;;;21.20;73.70;;;;;;5094646;28;20122;-70
2023/09/14 11:52:03;;;;;;;9.13;2.80;;;21.40;73.80;;;;;;5094711;28;20056;-69
2023/09/14 11:54:30;;;;;;;4.65;1.30;;;21.50;72.90;;;;;;5094784;28;20346;-70
2023/09/14 11:57:00;;;;;;;3.63;1.20;;;21.50;72.90;;;;;;5093762;28;20316;-71
2023/09/14 11:59:32;;;;;;;9.32;1.48;;;21.40;72.90;;;;;;5094664;28;20016;-70
2023/09/14 12:02:00;;;;;;;8.75;1.73;;;21.50;72.20;;;;;;5093611;28;20035;-67
2023/09/14 12:04:27;;;;;;;3.90;1.20;;;21.10;73.50;;;;;;5094694;28;20099;-69
2023/09/14 12:06:54;;;;;;;4.63;1.55;;;21.00;72.90;;;;;;5093143;28;20318;-69
2023/09/14 12:09:42;;;;;;;8.45;1.95;;;21.00;73.30;;;;;;5092201;28;20024;-69
2023/09/14 12:12:10;;;;;;;6.55;1.42;;;21.10;74.20;;;;;;5076848;28;20024;-68
2023/09/14 12:14:41;;;;;;;7.18;2.10;;;21.10;73.50;;;;;;5093453;28;20016;-69
2023/09/14 12:17:24;;;;;;;3.92;1.58;;;21.00;74.40;;;;;;5092332;28;20035;-69
2023/09/14 12:19:56;;;;;;;6.43;1.45;;;20.90;74.30;;;;;;5092035;28;20407;-68
2023/09/14 12:22:24;;;;;;;4.30;1.30;;;20.60;74.60;;;;;;5093024;28;20055;-68
2023/09/14 12:24:50;;;;;;;6.95;1.67;;;20.60;75.20;;;;;;5092693;28;20039;-68
2023/09/14 12:27:19;;;;;;;4.32;1.42;;;20.80;75.40;;;;;;5093046;28;20350;-70
2023/09/14 12:29:47;;;;;;;3.55;1.30;;;20.80;75.30;;;;;;5091835;28;20028;-70
2023/09/14 12:32:14;;;;;;;5.43;2.03;;;21.00;74.80;;;;;;5093102;28;20034;-69
2023/09/14 12:34:40;;;;;;;7.97;1.73;;;20.80;73.70;;;;;;5092902;28;20024;-70
2023/09/14 12:37:07;;;;;;;6.10;1.40;;;20.70;75.00;;;;;;5092840;28;20028;-69
2023/09/14 12:39:33;;;;;;;6.68;1.75;;;20.80;74.30;;;;;;5091865;28;20119;-69
2023/09/14 12:42:03;;;;;;;9.30;1.63;;;20.80;74.70;;;;;;5091727;28;20016;-70
2023/09/14 12:44:29;;;;;;;8.65;1.48;;;20.70;75.10;;;;;;5091561;28;20020;-70